Time;durP1;ratioP1;P1;durP2;ratioP2;P2;SDS_P1;SDS_P2;PMS_P1;PMS_P2;Temp;Humidity;BMP_temperature;BMP_pressure;BME280_temperature;BME280_humidity;BME280_pressure;Samples;Min_cycle;Max_cycle;Signal;HPM_P1;HPM_P2
2023/11/02 00:00:36;;;;;;;;;;;17.80;93.60;;;;;;6126834;23;19909;-76
2023/11/02 00:03:05;;;;;;;;;;;17.80;93.60;;;;;;6126946;23;19901;-76
2023/11/02 00:05:50;;;;;;;;;;;17.80;91.40;;;;;;6126701;23;20309;-75
2023/11/02 00:08:16;;;;;;;;;;;17.80;91.40;;;;;;6127133;23;19904;-75
2023/11/02 00:10:42;;;;;;;;;;;17.80;94.10;;;;;;6127129;23;20339;-76
2023/11/02 00:13:15;;;;;;;;;;;17.90;93.80;;;;;;6126703;23;19975;-74
2023/11/02 00:15:44;;;;;;;;;;;17.80;93.90;;;;;;6100106;23;19916;-75
2023/11/02 00:18:09;;;;;;;;;;;17.70;93.50;;;;;;6101216;23;19992;-71
2023/11/02 00:20:36;;;;;;;;;;;17.70;93.60;;;;;;6100584;23;19951;-71
2023/11/02 00:23:02;;;;;;;;;;;17.80;93.80;;;;;;6126674;23;19907;-74
2023/11/02 00:25:43;;;;;;;;;;;17.70;93.70;;;;;;6126526;23;19976;-72
2023/11/02 00:28:09;;;;;;;;;;;17.80;91.40;;;;;;6126628;23;19908;-73
2023/11/02 00:30:37;;;;;;;;;;;17.80;93.80;;;;;;6126737;23;20029;-76
2023/11/02 00:33:03;;;;;;;;;;;17.80;91.50;;;;;;6126636;23;19901;-76
2023/11/02 00:35:28;;;;;;;;;;;17.80;93.80;;;;;;6126586;23;20334;-76
2023/11/02 00:37:54;;;;;;;;;;;17.70;93.90;;;;;;6126591;23;19901;-75
2023/11/02 00:40:20;;;;;;;;;;;17.80;93.80;;;;;;6126113;23;19912;-75
2023/11/02 00:42:46;;;;;;;;;;;17.80;93.80;;;;;;6100351;23;19987;-75
2023/11/02 00:45:12;;;;;;;;;;;17.70;93.60;;;;;;6100285;23;19932;-74
2023/11/02 00:47:38;;;;;;;;;;;17.80;93.70;;;;;;6110741;23;19912;-72
2023/11/02 00:50:03;;;;;;;;;;;17.70;93.80;;;;;;6126312;23;20228;-72
2023/11/02 00:52:29;;;;;;;;;;;17.70;93.50;;;;;;6126218;23;19901;-72
2023/11/02 00:54:59;;;;;;;;;;;17.60;93.60;;;;;;6126271;23;19901;-71
2023/11/02 00:57:32;;;;;;;;;;;17.70;91.50;;;;;;6126962;23;20386;-73
2023/11/02 00:59:58;;;;;;;;;;;17.70;91.60;;;;;;6126266;23;19908;-73
2023/11/02 01:02:24;;;;;;;;;;;17.70;93.70;;;;;;6126200;23;19908;-74
2023/11/02 01:04:59;;;;;;;;;;;17.60;93.80;;;;;;6126243;23;19928;-73
2023/11/02 01:07:25;;;;;;;;;;;17.60;91.40;;;;;;6136416;23;19905;-73
2023/11/02 01:09:56;;;;;;;;;;;17.70;93.90;;;;;;6136025;23;19948;-73
2023/11/02 01:12:29;;;;;;;;;;;17.70;91.40;;;;;;6126594;23;20236;-73
2023/11/02 01:14:55;;;;;;;;;;;17.70;91.50;;;;;;6126635;23;19901;-73
2023/11/02 01:17:37;;;;;;;;;;;17.60;93.70;;;;;;6126048;23;19904;-73
2023/11/02 01:20:10;;;;;;;;;;;17.60;91.50;;;;;;6125690;23;19987;-72
2023/11/02 01:23:14;;;;;;;;;;;17.60;91.50;;;;;;6126117;23;20233;-72
2023/11/02 01:25:44;;;;;;;;;;;17.70;91.50;;;;;;5980126;24;19958;-75
2023/11/02 01:28:15;;;;;;;;;;;17.60;91.50;;;;;;5980026;24;20212;-73
2023/11/02 01:30:40;;;;;;;;;;;17.60;91.60;;;;;;6057146;23;19901;-72
2023/11/02 01:33:38;;;;;;;;;;;17.60;93.80;;;;;;6126011;23;19900;-72
2023/11/02 01:36:07;;;;;;;;;;;17.60;91.60;;;;;;6097225;23;19930;-73
2023/11/02 01:38:33;;;;;;;;;;;17.60;91.60;;;;;;6099894;23;19919;-73
2023/11/02 01:41:05;;;;;;;;;;;17.60;93.90;;;;;;6125585;23;19936;-72
2023/11/02 01:43:31;;;;;;;;;;;17.70;91.60;;;;;;6126455;23;19900;-75
2023/11/02 01:46:00;;;;;;;;;;;17.60;93.80;;;;;;6125697;23;19911;-75
2023/11/02 01:48:29;;;;;;;;;;;17.60;93.70;;;;;;6125812;23;19996;-75
2023/11/02 01:50:54;;;;;;;;;;;17.50;93.60;;;;;;6126185;23;20277;-75
2023/11/02 01:53:23;;;;;;;;;;;17.60;93.80;;;;;;6125909;23;19901;-75
2023/11/02 01:56:07;;;;;;;;;;;17.50;93.70;;;;;;6125712;23;19901;-73
2023/11/02 01:58:51;;;;;;;;;;;17.50;91.30;;;;;;6125739;23;19901;-72
2023/11/02 02:01:23;;;;;;;;;;;17.50;93.70;;;;;;6125591;23;19971;-72
2023/11/02 02:03:57;;;;;;;;;;;17.60;93.90;;;;;;6135622;23;19900;-72
2023/11/02 02:06:26;;;;;;;;;;;17.50;91.60;;;;;;6125664;23;19901;-72
2023/11/02 02:09:04;;;;;;;;;;;17.40;93.70;;;;;;6125611;23;19901;-72
2023/11/02 02:11:48;;;;;;;;;;;17.50;91.60;;;;;;6126280;23;19901;-75
2023/11/02 02:14:17;;;;;;;;;;;17.50;91.60;;;;;;6125595;23;19981;-75
2023/11/02 02:16:46;;;;;;;;;;;17.50;91.50;;;;;;6126129;23;19975;-75
2023/11/02 02:19:25;;;;;;;;;;;17.50;94.00;;;;;;6125274;23;19900;-75
2023/11/02 02:21:56;;;;;;;;;;;17.50;91.50;;;;;;6125530;23;19901;-76
2023/11/02 02:24:24;;;;;;;;;;;17.40;93.70;;;;;;6125630;23;19900;-75
2023/11/02 02:27:08;;;;;;;;;;;17.30;91.50;;;;;;6125588;23;19912;-75
2023/11/02 02:29:34;;;;;;;;;;;17.60;91.60;;;;;;6125586;23;19901;-75
2023/11/02 02:32:08;;;;;;;;;;;17.40;93.90;;;;;;6125537;23;19924;-76
2023/11/02 02:34:40;;;;;;;;;;;17.50;91.60;;;;;;6125584;23;19901;-75
2023/11/02 02:37:05;;;;;;;;;;;17.40;93.70;;;;;;6125454;23;19905;-75
2023/11/02 02:39:34;;;;;;;;;;;17.40;93.80;;;;;;6125537;23;19936;-74
2023/11/02 02:42:03;;;;;;;;;;;17.40;93.90;;;;;;6099661;23;19901;-72
2023/11/02 02:44:30;;;;;;;;;;;17.40;93.90;;;;;;6125378;23;19901;-72
2023/11/02 02:46:56;;;;;;;;;;;17.40;93.90;;;;;;6125548;23;19905;-72
2023/11/02 02:49:23;;;;;;;;;;;17.30;93.80;;;;;;6126033;23;19901;-72
2023/11/02 02:51:49;;;;;;;;;;;17.50;94.00;;;;;;6125464;23;19972;-72
2023/11/02 02:54:16;;;;;;;;;;;17.40;94.10;;;;;;6125321;23;19948;-72
2023/11/02 02:56:45;;;;;;;;;;;17.40;94.00;;;;;;6125365;23;20317;-72
2023/11/02 02:59:15;;;;;;;;;;;17.40;94.10;;;;;;6125236;23;19905;-72
2023/11/02 03:01:43;;;;;;;;;;;17.30;93.80;;;;;;6125209;23;19920;-72
2023/11/02 03:04:10;;;;;;;;;;;17.30;94.10;;;;;;6125253;23;19908;-72
2023/11/02 03:06:39;;;;;;;;;;;17.40;94.10;;;;;;6125410;23;19911;-72
2023/11/02 03:09:05;;;;;;;;;;;17.30;94.20;;;;;;6135506;23;20290;-72
2023/11/02 03:11:32;;;;;;;;;;;17.40;94.20;;;;;;6125307;23;19905;-72
2023/11/02 03:13:59;;;;;;;;;;;17.40;94.30;;;;;;6125394;23;19984;-72
2023/11/02 03:16:26;;;;;;;;;;;17.40;94.20;;;;;;6125174;23;20320;-72
2023/11/02 03:18:52;;;;;;;;;;;17.30;94.20;;;;;;6125434;23;20206;-72
2023/11/02 03:21:17;;;;;;;;;;;17.40;94.10;;;;;;6125908;23;19915;-75
2023/11/02 03:24:12;;;;;;;;;;;17.40;94.20;;;;;;6125302;23;19975;-75
2023/11/02 03:26:44;;;;;;;;;;;17.40;91.80;;;;;;6093973;23;20237;-75
2023/11/02 03:29:30;;;;;;;;;;;17.40;94.20;;;;;;6125057;23;19901;-75
2023/11/02 03:32:03;;;;;;;;;;;17.70;94.40;;;;;;6100018;23;20363;-75
2023/11/02 03:34:29;;;;;;;;;;;;;;;;;;6125330;23;19955;-75
2023/11/02 03:36:55;;;;;;;;;;;;;;;;;;6125765;23;20313;-72
2023/11/02 03:39:28;;;;;;;;;;;17.30;92.20;;;;;;6124832;23;19960;-72
2023/11/02 03:41:59;;;;;;;;;;;17.30;91.80;;;;;;6125770;23;20239;-72
2023/11/02 03:44:31;;;;;;;;;;;17.50;92.00;;;;;;6125077;23;20392;-72
2023/11/02 03:47:15;;;;;;;;;;;17.40;91.80;;;;;;6125152;23;20222;-73
2023/11/02 03:49:47;;;;;;;;;;;17.40;91.90;;;;;;6125113;23;19908;-72
2023/11/02 03:52:15;;;;;;;;;;;17.40;94.20;;;;;;6126788;23;19901;-72
2023/11/02 03:54:50;;;;;;;;;;;17.30;91.80;;;;;;6126761;23;19901;-73
2023/11/02 03:57:22;;;;;;;;;;;17.30;91.70;;;;;;6126949;23;20236;-73
2023/11/02 03:59:48;;;;;;;;;;;17.40;91.80;;;;;;6126942;23;19931;-73
2023/11/02 04:02:32;;;;;;;;;;;17.30;93.90;;;;;;6126866;23;19901;-73
2023/11/02 04:05:05;;;;;;;;;;;17.40;91.80;;;;;;6126878;23;19901;-72
2023/11/02 04:07:31;;;;;;;;;;;17.40;94.20;;;;;;6126706;23;19929;-72
2023/11/02 04:10:07;;;;;;;;;;;17.30;94.10;;;;;;6126682;23;19900;-72
2023/11/02 04:12:37;;;;;;;;;;;17.40;91.70;;;;;;6136475;23;19959;-72
2023/11/02 04:15:03;;;;;;;;;;;17.30;94.10;;;;;;6126706;23;19901;-72
2023/11/02 04:17:29;;;;;;;;;;;17.40;93.90;;;;;;6126625;23;19936;-75
2023/11/02 04:19:54;;;;;;;;;;;17.30;94.00;;;;;;6126657;23;19936;-75
2023/11/02 04:22:20;;;;;;;;;;;17.40;94.10;;;;;;6126622;23;19908;-75
2023/11/02 04:24:46;;;;;;;;;;;17.30;94.00;;;;;;6126459;23;20273;-75
2023/11/02 04:27:12;;;;;;;;;;;17.30;94.10;;;;;;6127273;23;19908;-75
2023/11/02 04:29:37;;;;;;;;;;;17.40;93.90;;;;;;6126522;23;19924;-75
2023/11/02 04:32:03;;;;;;;;;;;17.30;94.10;;;;;;6126620;23;20241;-75
2023/11/02 04:34:28;;;;;;;;;;;17.30;93.80;;;;;;6127209;23;19901;-75
2023/11/02 04:36:54;;;;;;;;;;;17.20;93.90;;;;;;6126472;23;20372;-75
2023/11/02 04:39:21;;;;;;;;;;;17.40;94.00;;;;;;6126149;23;19951;-75
2023/11/02 04:41:47;;;;;;;;;;;17.30;94.10;;;;;;6126376;23;19905;-75
2023/11/02 04:44:12;;;;;;;;;;;17.20;93.80;;;;;;6126470;23;19927;-75
2023/11/02 04:46:38;;;;;;;;;;;17.30;94.10;;;;;;6126427;23;19901;-75
2023/11/02 04:49:03;;;;;;;;;;;17.20;94.00;;;;;;6126381;23;19942;-72
2023/11/02 04:51:29;;;;;;;;;;;17.30;94.10;;;;;;6126244;23;19928;-72
2023/11/02 04:53:56;;;;;;;;;;;17.20;94.00;;;;;;6126192;23;19901;-72
2023/11/02 04:56:22;;;;;;;;;;;17.20;93.70;;;;;;6126199;23;19901;-72
2023/11/02 04:58:47;;;;;;;;;;;17.10;93.90;;;;;;6135705;23;19955;-72
2023/11/02 05:01:13;;;;;;;;;;;17.30;93.80;;;;;;6125905;23;19928;-72
2023/11/02 05:03:38;;;;;;;;;;;17.30;94.00;;;;;;6126621;23;19904;-76
2023/11/02 05:06:04;;;;;;;;;;;17.30;94.10;;;;;;6126203;23;19901;-75
2023/11/02 05:08:29;;;;;;;;;;;17.10;93.80;;;;;;6126107;23;19988;-75
2023/11/02 05:10:55;;;;;;;;;;;17.20;93.90;;;;;;6126045;23;19940;-75
2023/11/02 05:13:21;;;;;;;;;;;17.20;93.80;;;;;;6126048;23;19980;-75
2023/11/02 05:15:46;;;;;;;;;;;17.20;93.90;;;;;;6125965;23;19901;-72
2023/11/02 05:18:12;;;;;;;;;;;17.10;93.80;;;;;;6125945;23;20232;-72
2023/11/02 05:20:37;;;;;;;;;;;16.00;93.70;;;;;;6126027;23;19915;-72
2023/11/02 05:23:05;;;;;;;;;;;17.20;93.80;;;;;;6125956;23;19907;-72
2023/11/02 05:25:31;;;;;;;;;;;17.20;94.00;;;;;;6126394;23;20270;-72
2023/11/02 05:27:57;;;;;;;;;;;17.30;94.00;;;;;;6126200;23;19908;-72
2023/11/02 05:30:23;;;;;;;;;;;17.20;94.00;;;;;;6126644;23;19908;-72
2023/11/02 05:32:49;;;;;;;;;;;17.20;93.90;;;;;;6126552;23;19980;-72
2023/11/02 05:35:16;;;;;;;;;;;17.20;94.00;;;;;;6126413;23;19960;-72
2023/11/02 05:37:42;;;;;;;;;;;17.20;94.00;;;;;;6126305;23;20284;-72
2023/11/02 05:40:08;;;;;;;;;;;17.10;93.90;;;;;;6125716;23;19913;-72
2023/11/02 05:42:34;;;;;;;;;;;17.30;93.40;;;;;;6126462;23;19901;-72
2023/11/02 05:45:02;;;;;;;;;;;17.10;93.90;;;;;;6126130;23;20205;-72
2023/11/02 05:47:28;;;;;;;;;;;17.10;93.90;;;;;;6126159;23;19905;-72
2023/11/02 05:49:54;;;;;;;;;;;17.20;93.90;;;;;;6125926;23;19901;-72
2023/11/02 05:52:20;;;;;;;;;;;17.10;93.90;;;;;;6126022;23;19907;-72
2023/11/02 05:54:46;;;;;;;;;;;17.10;94.00;;;;;;6125839;23;19983;-72
2023/11/02 05:57:12;;;;;;;;;;;17.10;93.90;;;;;;6125941;23;19908;-72
2023/11/02 05:59:38;;;;;;;;;;;17.10;93.90;;;;;;6126382;23;19909;-72
2023/11/02 06:02:07;;;;;;;;;;;;;;;;;;6126151;23;19908;-72
2023/11/02 06:04:33;;;;;;;;;;;17.20;93.10;;;;;;6126168;23;19901;-72
2023/11/02 06:06:59;;;;;;;;;;;17.10;93.90;;;;;;6126103;23;19948;-72
2023/11/02 06:09:24;;;;;;;;;;;17.20;93.90;;;;;;6126232;23;20347;-72
2023/11/02 06:11:50;;;;;;;;;;;17.20;94.00;;;;;;6125924;23;19902;-75
2023/11/02 06:14:16;;;;;;;;;;;17.10;94.00;;;;;;6125826;23;19904;-75
2023/11/02 06:16:42;;;;;;;;;;;17.10;94.10;;;;;;6125671;23;19972;-75
2023/11/02 06:19:07;;;;;;;;;;;17.20;94.10;;;;;;6125542;23;20217;-75
2023/11/02 06:21:33;;;;;;;;;;;17.10;94.00;;;;;;6125462;23;19908;-75
2023/11/02 06:23:58;;;;;;;;;;;17.20;94.00;;;;;;6125421;23;20256;-75
2023/11/02 06:26:24;;;;;;;;;;;17.10;93.70;;;;;;6126165;23;20010;-75
2023/11/02 06:28:50;;;;;;;;;;;17.00;94.00;;;;;;6126078;23;20336;-75
2023/11/02 06:31:15;;;;;;;;;;;17.20;94.00;;;;;;6125506;23;20351;-75
2023/11/02 06:33:41;;;;;;;;;;;17.20;94.10;;;;;;6125503;23;19901;-75
2023/11/02 06:36:06;;;;;;;;;;;17.20;93.90;;;;;;6125998;23;19908;-75
2023/11/02 06:38:33;;;;;;;;;;;17.10;93.60;;;;;;6125327;23;19909;-75
2023/11/02 06:40:59;;;;;;;;;;;17.20;93.90;;;;;;6125427;23;19909;-72
2023/11/02 06:43:26;;;;;;;;;;;17.10;93.50;;;;;;6125460;23;19908;-72
2023/11/02 06:45:52;;;;;;;;;;;16.90;93.90;;;;;;6125475;23;19901;-72
2023/11/02 06:48:17;;;;;;;;;;;17.10;93.90;;;;;;6125318;23;19901;-72
2023/11/02 06:50:46;;;;;;;;;;;17.20;94.00;;;;;;6125390;23;19901;-72
2023/11/02 06:53:12;;;;;;;;;;;17.10;93.90;;;;;;6125382;23;19900;-72
2023/11/02 06:55:39;;;;;;;;;;;17.30;94.00;;;;;;6125331;23;19908;-72
2023/11/02 06:58:05;;;;;;;;;;;17.10;93.90;;;;;;6126340;23;19901;-72
2023/11/02 07:00:30;;;;;;;;;;;17.10;94.00;;;;;;6127058;23;19916;-72
2023/11/02 07:02:56;;;;;;;;;;;17.10;93.80;;;;;;6125863;23;19904;-72
2023/11/02 07:05:22;;;;;;;;;;;17.10;94.00;;;;;;6125168;23;19907;-72
2023/11/02 07:07:49;;;;;;;;;;;17.10;93.90;;;;;;6124685;23;20327;-74
2023/11/02 07:10:14;;;;;;;;;;;17.20;94.00;;;;;;6125383;23;19949;-73
2023/11/02 07:12:40;;;;;;;;;;;17.10;94.10;;;;;;6125844;23;20274;-74
2023/11/02 07:15:06;;;;;;;;;;;17.20;94.10;;;;;;6125148;23;19905;-74
2023/11/02 07:17:32;;;;;;;;;;;17.10;93.20;;;;;;6125263;23;19901;-73
2023/11/02 07:19:57;;;;;;;;;;;17.10;94.10;;;;;;6124986;23;19923;-73
2023/11/02 07:22:23;;;;;;;;;;;17.00;93.90;;;;;;6125210;23;19901;-72
2023/11/02 07:24:48;;;;;;;;;;;17.00;93.80;;;;;;6125964;23;19913;-78
2023/11/02 07:27:14;;;;;;;;;;;17.10;94.40;;;;;;6126920;23;19901;-78
2023/11/02 07:29:39;;;;;;;;;;;17.20;94.10;;;;;;6127043;23;19901;-79
2023/11/02 07:32:05;;;;;;;;;;;17.10;94.00;;;;;;6127038;23;20329;-77
2023/11/02 07:34:31;;;;;;;;;;;17.10;93.60;;;;;;6127014;23;19924;-76
2023/11/02 07:36:57;;;;;;;;;;;17.00;93.80;;;;;;6127176;23;19984;-73
2023/11/02 07:39:23;;;;;;;;;;;17.10;94.10;;;;;;6127162;23;19913;-72
2023/11/02 07:41:49;;;;;;;;;;;17.10;94.00;;;;;;6126943;23;19941;-74
2023/11/02 07:44:14;;;;;;;;;;;17.10;94.00;;;;;;6127533;23;19910;-73
2023/11/02 07:46:41;;;;;;;;;;;17.10;94.10;;;;;;6126860;23;19959;-71
2023/11/02 07:49:06;;;;;;;;;;;17.10;94.00;;;;;;6126876;23;19937;-71
2023/11/02 07:51:32;;;;;;;;;;;17.10;94.10;;;;;;6126905;23;19908;-71
2023/11/02 07:53:57;;;;;;;;;;;17.10;94.00;;;;;;6127546;23;19908;-76
2023/11/02 07:56:23;;;;;;;;;;;17.00;94.00;;;;;;6127000;23;19928;-76
2023/11/02 07:58:48;;;;;;;;;;;17.00;93.90;;;;;;6126969;23;19932;-74
2023/11/02 08:01:17;;;;;;;;;;;17.00;93.90;;;;;;6126591;23;19915;-75
2023/11/02 08:03:43;;;;;;;;;;;17.00;91.70;;;;;;6126897;23;19932;-75
2023/11/02 08:06:09;;;;;;;;;;;17.10;94.20;;;;;;6127195;23;20335;-71
2023/11/02 08:08:34;;;;;;;;;;;17.20;94.10;;;;;;6126796;23;19901;-71
2023/11/02 08:11:00;;;;;;;;;;;17.00;94.10;;;;;;6127520;23;20011;-70
2023/11/02 08:13:25;;;;;;;;;;;17.20;94.20;;;;;;6126711;23;19936;-70
2023/11/02 08:15:51;;;;;;;;;;;17.00;94.10;;;;;;6126790;23;19907;-71
2023/11/02 08:18:17;;;;;;;;;;;17.00;94.30;;;;;;6126540;23;20273;-71
2023/11/02 08:20:43;;;;;;;;;;;17.00;94.10;;;;;;6126469;23;19955;-72
2023/11/02 08:23:08;;;;;;;;;;;17.00;94.20;;;;;;6127186;23;19983;-71
2023/11/02 08:25:34;;;;;;;;;;;17.00;94.20;;;;;;6126535;23;19905;-71
2023/11/02 08:27:59;;;;;;;;;;;17.00;94.20;;;;;;6126436;23;19964;-72
2023/11/02 08:30:28;;;;;;;;;;;17.10;94.20;;;;;;6126363;23;19901;-72
2023/11/02 08:32:54;;;;;;;;;;;17.00;94.30;;;;;;6126870;23;20210;-72
2023/11/02 08:35:22;;;;;;;;;;;17.00;94.20;;;;;;6126486;23;19908;-71
2023/11/02 08:37:48;;;;;;;;;;;17.00;94.30;;;;;;6125696;23;19901;-72
2023/11/02 08:40:14;;;;;;;;;;;17.10;94.20;;;;;;6126378;23;19920;-73
2023/11/02 08:42:40;;;;;;;;;;;17.10;94.10;;;;;;6126284;23;20376;-71
2023/11/02 08:45:06;;;;;;;;;;;17.00;94.00;;;;;;6126317;23;19905;-71
2023/11/02 08:47:32;;;;;;;;;;;17.00;93.70;;;;;;6126397;23;19976;-71
2023/11/02 08:49:57;;;;;;;;;;;17.00;94.10;;;;;;6126846;23;19908;-75
2023/11/02 08:52:22;;;;;;;;;;;17.10;94.30;;;;;;6126202;23;19901;-75
2023/11/02 08:54:49;;;;;;;;;;;17.00;94.10;;;;;;6126182;23;19908;-73
2023/11/02 08:57:15;;;;;;;;;;;17.00;94.20;;;;;;6126089;23;19901;-75
2023/11/02 08:59:41;;;;;;;;;;;17.10;94.10;;;;;;6126000;23;19956;-74
2023/11/02 09:02:06;;;;;;;;;;;17.00;94.00;;;;;;6126150;23;19940;-74
2023/11/02 09:04:32;;;;;;;;;;;16.90;94.00;;;;;;6125966;23;19991;-76
2023/11/02 09:06:58;;;;;;;;;;;17.00;94.10;;;;;;6126618;23;19901;-76
2023/11/02 09:09:23;;;;;;;;;;;17.00;94.10;;;;;;6125915;23;20039;-76
2023/11/02 09:11:49;;;;;;;;;;;17.00;94.20;;;;;;6103525;23;19905;-71
2023/11/02 09:14:14;;;;;;;;;;;17.00;94.20;;;;;;6126139;23;19908;-76
2023/11/02 09:16:39;;;;;;;;;;;16.90;94.00;;;;;;6126059;23;19900;-76
2023/11/02 09:19:05;;;;;;;;;;;17.10;94.30;;;;;;6126699;23;20357;-76
2023/11/02 09:21:31;;;;;;;;;;;17.00;94.00;;;;;;6125978;23;19909;-76
2023/11/02 09:23:58;;;;;;;;;;;16.90;93.90;;;;;;6126024;23;19975;-76
2023/11/02 09:26:23;;;;;;;;;;;17.00;94.10;;;;;;6126050;23;19932;-75
2023/11/02 09:28:49;;;;;;;;;;;17.00;94.10;;;;;;6126495;23;20027;-74
2023/11/02 09:31:17;;;;;;;;;;;17.10;94.20;;;;;;6125914;23;19900;-71
2023/11/02 09:33:43;;;;;;;;;;;17.00;94.10;;;;;;6125815;23;20351;-74
2023/11/02 09:36:08;;;;;;;;;;;17.00;94.20;;;;;;6125919;23;19901;-75
2023/11/02 09:38:34;;;;;;;;;;;16.90;94.00;;;;;;6125692;23;19913;-76
2023/11/02 09:41:00;;;;;;;;;;;17.00;94.10;;;;;;6125800;23;19909;-75
2023/11/02 09:43:25;;;;;;;;;;;17.00;94.20;;;;;;6125803;23;19905;-75
2023/11/02 09:45:51;;;;;;;;;;;16.90;93.90;;;;;;6125840;23;19979;-75
2023/11/02 09:48:16;;;;;;;;;;;17.00;94.10;;;;;;6126686;23;19901;-75
2023/11/02 09:50:42;;;;;;;;;;;17.40;94.10;;;;;;6125747;23;19908;-75
2023/11/02 09:53:08;;;;;;;;;;;16.90;94.00;;;;;;6126246;23;19901;-75
2023/11/02 09:55:37;;;;;;;;;;;17.00;94.00;;;;;;6126237;23;19908;-75
2023/11/02 09:58:03;;;;;;;;;;;17.00;94.20;;;;;;6125606;23;19992;-75
2023/11/02 10:00:29;;;;;;;;;;;16.90;93.60;;;;;;6125911;23;19952;-72
2023/11/02 10:02:55;;;;;;;;;;;16.90;93.90;;;;;;6125676;23;20288;-72
2023/11/02 10:05:22;;;;;;;;;;;16.90;93.80;;;;;;6125871;23;19901;-73
2023/11/02 10:07:51;;;;;;;;;;;16.90;94.00;;;;;;6126098;23;19901;-73
2023/11/02 10:10:20;;;;;;;;;;;17.00;92.50;;;;;;6126019;23;19920;-72
2023/11/02 10:12:46;;;;;;;;;;;16.90;94.10;;;;;;6125734;23;19967;-72
2023/11/02 10:15:16;;;;;;;;;;;16.90;94.00;;;;;;6126061;23;19920;-72
2023/11/02 10:17:42;;;;;;;;;;;16.90;94.00;;;;;;6125990;23;19901;-72
2023/11/02 10:20:11;;;;;;;;;;;17.10;94.00;;;;;;6125931;23;19909;-72
2023/11/02 10:22:38;;;;;;;;;;;17.10;91.80;;;;;;6125648;23;19900;-72
2023/11/02 10:25:04;;;;;;;;;;;17.20;94.00;;;;;;6125527;23;19900;-72
2023/11/02 10:27:30;;;;;;;;;;;16.90;93.20;;;;;;6126057;23;20232;-75
2023/11/02 10:29:56;;;;;;;;;;;17.00;94.00;;;;;;6125720;23;19935;-75
2023/11/02 10:32:23;;;;;;;;;;;17.00;94.00;;;;;;6126003;23;19901;-75
2023/11/02 10:34:50;;;;;;;;;;;16.90;94.00;;;;;;6125987;23;19929;-75
2023/11/02 10:37:27;;;;;;;;;;;16.90;93.60;;;;;;6125888;23;20241;-75
2023/11/02 10:39:53;;;;;;;;;;;17.00;94.10;;;;;;6127300;23;19932;-75
2023/11/02 10:42:19;;;;;;;;;;;17.00;94.20;;;;;;6125845;23;19904;-75
2023/11/02 10:44:45;;;;;;;;;;;16.90;94.00;;;;;;6126457;23;19901;-72
2023/11/02 10:47:14;;;;;;;;;;;16.90;93.30;;;;;;6125661;23;19901;-72
2023/11/02 10:49:42;;;;;;;;;;;17.00;94.20;;;;;;6125587;23;20004;-72
2023/11/02 10:52:08;;;;;;;;;;;16.90;94.00;;;;;;6125578;23;20277;-72
2023/11/02 10:54:46;;;;;;;;;;;17.00;94.10;;;;;;6099822;23;19908;-73
2023/11/02 10:57:18;;;;;;;;;;;17.10;91.80;;;;;;6135381;23;19948;-75
2023/11/02 10:59:45;;;;;;;;;;;16.90;91.80;;;;;;6125555;23;19900;-75
2023/11/02 11:02:13;;;;;;;;;;;;;;;;;;6127453;23;19972;-74
2023/11/02 11:04:42;;;;;;;;;;;16.90;93.30;;;;;;6127857;23;19923;-75
2023/11/02 11:07:11;;;;;;;;;;;16.90;91.70;;;;;;6127681;23;19901;-74
2023/11/02 11:09:38;;;;;;;;;;;16.90;94.10;;;;;;6127152;23;19908;-75
2023/11/02 11:12:04;;;;;;;;;;;16.90;94.10;;;;;;6127117;23;20229;-75
2023/11/02 11:14:30;;;;;;;;;;;17.00;93.80;;;;;;6128045;23;20233;-73
2023/11/02 11:16:56;;;;;;;;;;;17.00;94.10;;;;;;6126984;23;20021;-73
2023/11/02 11:19:22;;;;;;;;;;;17.20;94.20;;;;;;6101187;23;19948;-74
2023/11/02 11:21:48;;;;;;;;;;;16.90;94.10;;;;;;6126946;23;19908;-74
2023/11/02 11:24:17;;;;;;;;;;;16.90;94.10;;;;;;6127083;23;19924;-72
2023/11/02 11:26:44;;;;;;;;;;;16.90;93.40;;;;;;6127040;23;19907;-73
2023/11/02 11:29:31;;;;;;;;;;;16.90;94.20;;;;;;6126942;23;19908;-74
2023/11/02 11:31:58;;;;;;;;;;;16.90;91.90;;;;;;6127053;23;20244;-73
2023/11/02 11:34:23;;;;;;;;;;;17.20;94.10;;;;;;6126969;23;20331;-74
2023/11/02 11:36:49;;;;;;;;;;;16.90;94.00;;;;;;6127017;23;19901;-74
2023/11/02 11:39:43;;;;;;;;;;;16.90;94.10;;;;;;6126638;23;19943;-74
2023/11/02 11:42:09;;;;;;;;;;;16.90;91.90;;;;;;6095765;23;19940;-72
2023/11/02 11:44:35;;;;;;;;;;;16.90;94.00;;;;;;6127074;23;19988;-73
2023/11/02 11:47:00;;;;;;;;;;;17.00;94.10;;;;;;6126942;23;19907;-73
2023/11/02 11:49:33;;;;;;;;;;;17.00;94.00;;;;;;6126920;23;19935;-73
2023/11/02 11:52:00;;;;;;;;;;;16.90;91.90;;;;;;6127350;23;19924;-73
2023/11/02 11:54:27;;;;;;;;;;;16.90;94.10;;;;;;6127055;23;19901;-71
2023/11/02 11:56:54;;;;;;;;;;;16.90;94.00;;;;;;6127303;23;19997;-78
2023/11/02 11:59:40;;;;;;;;;;;16.90;94.20;;;;;;6127399;23;19907;-73
2023/11/02 12:02:26;;;;;;;;;;;16.90;94.00;;;;;;6128219;23;20293;-73
2023/11/02 12:04:56;;;;;;;;;;;17.00;94.10;;;;;;6101522;23;19901;-75
2023/11/02 12:07:25;;;;;;;;;;;16.90;94.10;;;;;;6126567;23;19901;-76
2023/11/02 12:09:51;;;;;;;;;;;16.80;91.70;;;;;;6127120;23;19901;-75
2023/11/02 12:12:18;;;;;;;;;;;16.90;94.20;;;;;;6126620;23;20281;-75
2023/11/02 12:14:44;;;;;;;;;;;16.90;94.00;;;;;;6126656;23;19924;-75
2023/11/02 12:17:10;;;;;;;;;;;16.90;94.10;;;;;;6126638;23;20255;-75
2023/11/02 12:19:39;;;;;;;;;;;16.90;94.00;;;;;;6126370;23;20085;-75
2023/11/02 12:22:05;;;;;;;;;;;17.00;91.70;;;;;;6126406;23;20324;-75
2023/11/02 12:24:37;;;;;;;;;;;16.90;94.00;;;;;;6126945;23;20388;-76
2023/11/02 12:27:10;;;;;;;;;;;16.90;93.90;;;;;;6136296;23;19947;-75
2023/11/02 12:29:36;;;;;;;;;;;16.80;91.70;;;;;;6126427;23;19908;-76
2023/11/02 12:32:02;;;;;;;;;;;16.90;93.90;;;;;;6127065;23;19908;-76
2023/11/02 12:34:28;;;;;;;;;;;16.80;93.80;;;;;;6126967;23;19907;-75
2023/11/02 12:36:54;;;;;;;;;;;16.70;93.80;;;;;;6126434;23;19999;-75
2023/11/02 12:39:24;;;;;;;;;;;16.80;94.00;;;;;;6126098;23;20309;-73
2023/11/02 12:42:05;;;;;;;;;;;16.80;93.80;;;;;;6122869;23;19909;-73
2023/11/02 12:44:42;;;;;;;;;;;16.80;93.80;;;;;;6126943;23;19913;-73
2023/11/02 12:47:08;;;;;;;;;;;16.90;94.00;;;;;;6136444;23;20229;-73
2023/11/02 12:49:34;;;;;;;;;;;16.90;94.00;;;;;;6126245;23;19908;-73
2023/11/02 12:52:02;;;;;;;;;;;16.80;93.90;;;;;;6126757;23;19901;-73
2023/11/02 12:54:31;;;;;;;;;;;16.80;93.90;;;;;;6126290;23;19901;-73
2023/11/02 12:57:00;;;;;;;;;;;16.70;94.00;;;;;;6127011;23;19952;-73
2023/11/02 12:59:26;;;;;;;;;;;16.80;91.60;;;;;;6126389;23;20058;-73
2023/11/02 13:01:53;;;;;;;;;;;16.80;93.80;;;;;;6125991;23;19952;-73
2023/11/02 13:04:20;;;;;;;;;;;16.70;93.90;;;;;;6126038;23;20308;-72
2023/11/02 13:06:46;;;;;;;;;;;16.80;94.10;;;;;;6125990;23;20240;-73
2023/11/02 13:09:13;;;;;;;;;;;16.80;93.90;;;;;;6126666;23;19985;-73
2023/11/02 13:11:43;;;;;;;;;;;16.70;93.90;;;;;;6126527;23;20232;-73
2023/11/02 13:14:13;;;;;;;;;;;16.80;94.10;;;;;;6126403;23;19949;-71
2023/11/02 13:16:39;;;;;;;;;;;16.70;91.60;;;;;;6126549;23;19956;-72
2023/11/02 13:19:05;;;;;;;;;;;16.70;94.30;;;;;;6126555;23;19901;-72
2023/11/02 13:21:31;;;;;;;;;;;16.70;93.90;;;;;;6126142;23;19909;-72
2023/11/02 13:23:57;;;;;;;;;;;16.70;93.90;;;;;;6125974;23;19980;-71
2023/11/02 13:26:23;;;;;;;;;;;16.70;93.90;;;;;;6126628;23;19907;-78
2023/11/02 13:28:49;;;;;;;;;;;16.70;93.90;;;;;;6126599;23;20309;-78
2023/11/02 13:31:15;;;;;;;;;;;16.70;93.90;;;;;;6125828;23;19966;-77
2023/11/02 13:33:41;;;;;;;;;;;16.70;93.60;;;;;;6100136;23;20297;-77
2023/11/02 13:36:09;;;;;;;;;;;16.70;93.80;;;;;;6126450;23;19944;-82
2023/11/02 13:38:36;;;;;;;;;;;16.60;93.30;;;;;;6099847;23;20305;-80
2023/11/02 13:41:03;;;;;;;;;;;16.70;94.00;;;;;;6126047;23;20245;-78
2023/11/02 13:43:29;;;;;;;;;;;16.80;93.70;;;;;;6126380;23;19901;-79
2023/11/02 13:45:54;;;;;;;;;;;16.60;94.00;;;;;;6099851;23;20383;-80
2023/11/02 13:48:20;;;;;;;;;;;16.70;93.90;;;;;;6126186;23;19901;-79
2023/11/02 13:50:46;;;;;;;;;;;16.60;93.60;;;;;;6126083;23;19936;-80
2023/11/02 13:53:14;;;;;;;;;;;16.40;93.70;;;;;;6125948;23;19901;-79
2023/11/02 13:55:41;;;;;;;;;;;16.60;93.70;;;;;;6125782;23;19971;-79
2023/11/02 13:58:07;;;;;;;;;;;16.60;93.70;;;;;;6125666;23;19905;-79
2023/11/02 14:00:33;;;;;;;;;;;;;;;;;;6125502;23;19909;-79
2023/11/02 14:02:59;;;;;;;;;;;16.60;93.60;;;;;;6125565;23;19905;-77
2023/11/02 14:05:24;;;;;;;;;;;16.60;93.70;;;;;;6100308;23;20284;-77
2023/11/02 14:07:50;;;;;;;;;;;16.50;93.40;;;;;;6125543;23;19948;-77
2023/11/02 14:10:16;;;;;;;;;;;16.60;93.60;;;;;;6125590;23;19936;-77
2023/11/02 14:12:42;;;;;;;;;;;16.60;93.60;;;;;;6126125;23;19901;-79
2023/11/02 14:15:09;;;;;;;;;;;16.50;93.20;;;;;;6125865;23;20349;-79
2023/11/02 14:17:35;;;;;;;;;;;16.40;93.40;;;;;;6125756;23;19948;-80
2023/11/02 14:20:01;;;;;;;;;;;16.50;93.60;;;;;;6126003;23;19908;-79
2023/11/02 14:22:26;;;;;;;;;;;16.50;93.70;;;;;;6125696;23;20007;-77